Orlando, FL

8:38 PM EDT on July 01, 2015 (GMT -0400)
Lake Como | | Change Station
CLOSE
Current Station
Personal Weather Station
Location: Orlando, FL
Elevation: 154 ft
Nearby Weather Stations

Elev 154 ft 28.54 °N, 81.35 °W | Updated 1 minute ago

Clear
Clear
86.4 °F
Feels Like 92 °F
N
3.8
Wind Variable Wind from NE

Today
High -- | Low -- °F
--% Chance of Precip.
Yesterday
High -- | Low -- °F
Precip. -- in
6:31 AM 8:27 PM
Full, 100% visible
Pressure 30.10 in
Visibility 10.0 miles
Clouds Clear
Heat Index 92 °F
Dew Point 71 °F
Humidity 60%
Rainfall 0.00 in
Snow Depth Not available.
UV 0 out of 12
Pollen 3.10 out of 12
Air Quality Not available.
Flu Activity Not available.
METAR KORL 012353Z 17009KT 10SM CLR 31/22 A3010 RMK AO2 LTG DSNT SE SLP193 T03110222 10333 20311 53005

More Conditions Fewer Conditions

Pressure 30.10 in
Visibility 10.0 miles
Clouds Clear
Heat Index 92 °F
Dew Point 71 °F
Humidity 60%
Rainfall 0.00 in
Snow Depth Not available.
UV 0 out of 12
Pollen 3.10 out of 12
Air Quality Not available.
Flu Activity Not available.
METAR KORL 012353Z 17009KT 10SM CLR 31/22 A3010 RMK AO2 LTG DSNT SE SLP193 T03110222 10333 20311 53005

More Conditions Fewer Conditions

Nowcast | as of 5:49 PM EDT on July 1, 2015

Through early evening...sea breeze and mesoscale boundary collisions south of Orlando and inland from the Treasure Coast will promote scattered showers and storms through mid evening. Main storm movement is towards the east or northeast at around 15 mph. Storm threats...in general...include locally heavy rainfall...frequent lightning...gusty winds to around 50 mph and hail to penny size. Activity will decrease in coverage and dissipate mid to late evening. Additional details...including graphics are available online at: http://www.Srh.NOAA.Gov/mlb/blog.Php

×

10-Day Weather Forecast

×

Almanac

Astronomy

Jul. 01, 2015 Rise Set
Actual Time
Civil Twilight
Nautical Twilight
Astronomical Twilight
Moon
Length of Visible Light
Length of Day
Tomorrow will be .
, % of the Moon is Illuminated

Today's Extremes

State Highs State Lows

Community

WunderPhotos

Upload Photos

1,834,355 photos uploaded!

WunderBlogs® & News

Nearby

Air Quality

  Air Quality AQ Index Pollutant
Not available.

Snow Depth

Station Depth Elevation

Earthquake Activity

City Distance Mag. Time & Date
Minimum magnitude displayed is 2.5.

Coastal Water Temperatures

Place Temperature

Stations

Nearby Weather Stations

Station Location Temp. Windchill Dew Point Humidity Wind Precip. Elev Updated Type